sensor_id;sensor_type;location;lat;lon;timestamp;P1;durP1;ratioP1;P2;durP2;ratioP2
31764;SDS011;18338;53.240;8.798;2023-04-04T00:00:28;4.10;;;1.70;;
31764;SDS011;18338;53.240;8.798;2023-04-04T00:02:54;3.17;;;1.77;;
31764;SDS011;18338;53.240;8.798;2023-04-04T00:05:22;4.87;;;2.10;;
31764;SDS011;18338;53.240;8.798;2023-04-04T00:07:49;3.50;;;2.20;;
31764;SDS011;18338;53.240;8.798;2023-04-04T00:10:15;4.90;;;1.73;;
31764;SDS011;18338;53.240;8.798;2023-04-04T00:12:42;4.73;;;2.47;;
31764;SDS011;18338;53.240;8.798;2023-04-04T00:15:09;2.53;;;1.83;;
31764;SDS011;18338;53.240;8.798;2023-04-04T00:17:37;5.03;;;2.07;;
31764;SDS011;18338;53.240;8.798;2023-04-04T00:20:03;5.03;;;2.07;;
31764;SDS011;18338;53.240;8.798;2023-04-04T00:22:32;3.33;;;2.20;;
31764;SDS011;18338;53.240;8.798;2023-04-04T00:24:58;3.57;;;2.00;;
31764;SDS011;18338;53.240;8.798;2023-04-04T00:27:25;2.57;;;1.57;;
31764;SDS011;18338;53.240;8.798;2023-04-04T00:29:52;3.50;;;1.87;;
31764;SDS011;18338;53.240;8.798;2023-04-04T00:32:20;5.77;;;2.77;;
31764;SDS011;18338;53.240;8.798;2023-04-04T00:34:53;3.07;;;1.87;;
31764;SDS011;18338;53.240;8.798;2023-04-04T00:37:22;5.67;;;2.00;;
31764;SDS011;18338;53.240;8.798;2023-04-04T00:39:48;6.03;;;2.10;;
31764;SDS011;18338;53.240;8.798;2023-04-04T00:42:15;7.57;;;2.10;;
31764;SDS011;18338;53.240;8.798;2023-04-04T00:44:43;3.13;;;2.10;;
31764;SDS011;18338;53.240;8.798;2023-04-04T00:47:09;5.93;;;2.60;;
31764;SDS011;18338;53.240;8.798;2023-04-04T00:49:36;3.63;;;2.30;;
31764;SDS011;18338;53.240;8.798;2023-04-04T00:52:03;3.73;;;1.87;;
31764;SDS011;18338;53.240;8.798;2023-04-04T00:54:33;5.53;;;2.63;;
31764;SDS011;18338;53.240;8.798;2023-04-04T00:57:00;3.60;;;1.97;;
31764;SDS011;18338;53.240;8.798;2023-04-04T00:59:29;4.13;;;2.07;;
31764;SDS011;18338;53.240;8.798;2023-04-04T01:01:58;4.90;;;2.17;;
31764;SDS011;18338;53.240;8.798;2023-04-04T01:04:26;5.03;;;2.60;;
31764;SDS011;18338;53.240;8.798;2023-04-04T01:06:56;5.00;;;2.30;;
31764;SDS011;18338;53.240;8.798;2023-04-04T01:09:24;3.13;;;2.13;;
31764;SDS011;18338;53.240;8.798;2023-04-04T01:11:51;5.40;;;2.23;;
31764;SDS011;18338;53.240;8.798;2023-04-04T01:14:21;4.43;;;3.20;;
31764;SDS011;18338;53.240;8.798;2023-04-04T01:16:50;5.00;;;2.23;;
31764;SDS011;18338;53.240;8.798;2023-04-04T01:19:23;5.03;;;2.73;;
31764;SDS011;18338;53.240;8.798;2023-04-04T01:21:55;5.63;;;2.50;;
31764;SDS011;18338;53.240;8.798;2023-04-04T01:24:25;5.70;;;2.17;;
31764;SDS011;18338;53.240;8.798;2023-04-04T01:26:53;3.17;;;2.10;;
31764;SDS011;18338;53.240;8.798;2023-04-04T01:29:20;4.20;;;2.60;;
31764;SDS011;18338;53.240;8.798;2023-04-04T01:31:48;3.07;;;2.20;;
31764;SDS011;18338;53.240;8.798;2023-04-04T01:34:31;6.20;;;2.80;;
31764;SDS011;18338;53.240;8.798;2023-04-04T01:37:17;4.93;;;2.37;;
31764;SDS011;18338;53.240;8.798;2023-04-04T01:39:54;3.80;;;2.23;;
31764;SDS011;18338;53.240;8.798;2023-04-04T01:42:30;4.77;;;2.50;;
31764;SDS011;18338;53.240;8.798;2023-04-04T01:44:57;4.37;;;2.47;;
31764;SDS011;18338;53.240;8.798;2023-04-04T01:47:24;5.90;;;2.67;;
31764;SDS011;18338;53.240;8.798;2023-04-04T01:49:51;7.37;;;2.63;;
31764;SDS011;18338;53.240;8.798;2023-04-04T01:52:19;8.77;;;2.73;;
31764;SDS011;18338;53.240;8.798;2023-04-04T01:54:45;7.17;;;2.57;;
31764;SDS011;18338;53.240;8.798;2023-04-04T01:57:12;4.93;;;3.10;;
31764;SDS011;18338;53.240;8.798;2023-04-04T01:59:39;7.27;;;3.13;;
31764;SDS011;18338;53.240;8.798;2023-04-04T02:02:05;5.90;;;3.03;;
31764;SDS011;18338;53.240;8.798;2023-04-04T02:04:32;4.47;;;2.57;;
31764;SDS011;18338;53.240;8.798;2023-04-04T02:06:59;6.47;;;2.77;;
31764;SDS011;18338;53.240;8.798;2023-04-04T02:09:26;5.00;;;2.87;;
31764;SDS011;18338;53.240;8.798;2023-04-04T02:11:52;5.73;;;2.80;;
31764;SDS011;18338;53.240;8.798;2023-04-04T02:14:19;5.63;;;3.00;;
31764;SDS011;18338;53.240;8.798;2023-04-04T02:16:46;6.33;;;3.00;;
31764;SDS011;18338;53.240;8.798;2023-04-04T02:19:13;8.27;;;3.20;;
31764;SDS011;18338;53.240;8.798;2023-04-04T02:21:40;5.37;;;3.10;;
31764;SDS011;18338;53.240;8.798;2023-04-04T02:24:07;7.50;;;3.03;;
31764;SDS011;18338;53.240;8.798;2023-04-04T02:26:33;4.70;;;3.10;;
31764;SDS011;18338;53.240;8.798;2023-04-04T02:29:00;6.17;;;3.43;;
31764;SDS011;18338;53.240;8.798;2023-04-04T02:31:27;7.90;;;3.43;;
31764;SDS011;18338;53.240;8.798;2023-04-04T02:33:54;5.30;;;3.00;;
31764;SDS011;18338;53.240;8.798;2023-04-04T02:36:21;6.90;;;3.63;;
31764;SDS011;18338;53.240;8.798;2023-04-04T02:38:48;8.30;;;4.43;;
31764;SDS011;18338;53.240;8.798;2023-04-04T02:41:15;6.73;;;3.83;;
31764;SDS011;18338;53.240;8.798;2023-04-04T02:43:42;5.60;;;3.50;;
31764;SDS011;18338;53.240;8.798;2023-04-04T02:46:09;8.43;;;4.00;;
31764;SDS011;18338;53.240;8.798;2023-04-04T02:48:47;6.63;;;4.20;;
31764;SDS011;18338;53.240;8.798;2023-04-04T02:51:14;7.57;;;4.30;;
31764;SDS011;18338;53.240;8.798;2023-04-04T02:53:41;7.30;;;4.20;;
31764;SDS011;18338;53.240;8.798;2023-04-04T02:56:08;6.43;;;4.37;;
31764;SDS011;18338;53.240;8.798;2023-04-04T02:58:35;8.53;;;4.43;;
31764;SDS011;18338;53.240;8.798;2023-04-04T03:01:02;6.10;;;4.43;;
31764;SDS011;18338;53.240;8.798;2023-04-04T03:03:28;7.30;;;4.60;;
31764;SDS011;18338;53.240;8.798;2023-04-04T03:05:56;7.93;;;5.13;;
31764;SDS011;18338;53.240;8.798;2023-04-04T03:08:23;5.90;;;4.60;;
31764;SDS011;18338;53.240;8.798;2023-04-04T03:10:50;6.57;;;4.23;;
31764;SDS011;18338;53.240;8.798;2023-04-04T03:13:17;6.27;;;4.93;;
31764;SDS011;18338;53.240;8.798;2023-04-04T03:15:44;8.13;;;5.07;;
31764;SDS011;18338;53.240;8.798;2023-04-04T03:18:12;5.20;;;4.43;;
31764;SDS011;18338;53.240;8.798;2023-04-04T03:20:39;7.83;;;5.13;;
31764;SDS011;18338;53.240;8.798;2023-04-04T03:23:06;8.00;;;5.00;;
31764;SDS011;18338;53.240;8.798;2023-04-04T03:25:33;6.93;;;4.87;;
31764;SDS011;18338;53.240;8.798;2023-04-04T03:28:09;6.33;;;5.30;;
31764;SDS011;18338;53.240;8.798;2023-04-04T03:30:36;7.57;;;5.80;;
31764;SDS011;18338;53.240;8.798;2023-04-04T03:33:04;9.07;;;4.97;;
31764;SDS011;18338;53.240;8.798;2023-04-04T03:35:37;7.97;;;5.13;;
31764;SDS011;18338;53.240;8.798;2023-04-04T03:38:05;8.13;;;4.97;;
31764;SDS011;18338;53.240;8.798;2023-04-04T03:40:32;7.60;;;5.40;;
31764;SDS011;18338;53.240;8.798;2023-04-04T03:42:59;8.87;;;4.87;;
31764;SDS011;18338;53.240;8.798;2023-04-04T03:45:27;7.33;;;5.40;;
31764;SDS011;18338;53.240;8.798;2023-04-04T03:47:55;8.53;;;5.60;;
31764;SDS011;18338;53.240;8.798;2023-04-04T03:50:22;11.77;;;5.20;;
31764;SDS011;18338;53.240;8.798;2023-04-04T03:52:49;8.73;;;5.57;;
31764;SDS011;18338;53.240;8.798;2023-04-04T03:55:15;7.57;;;5.77;;
31764;SDS011;18338;53.240;8.798;2023-04-04T03:57:42;7.50;;;5.57;;
31764;SDS011;18338;53.240;8.798;2023-04-04T04:00:09;8.77;;;6.90;;
31764;SDS011;18338;53.240;8.798;2023-04-04T04:02:37;9.57;;;5.63;;
31764;SDS011;18338;53.240;8.798;2023-04-04T04:05:04;6.80;;;6.10;;
31764;SDS011;18338;53.240;8.798;2023-04-04T04:07:31;10.83;;;6.93;;
31764;SDS011;18338;53.240;8.798;2023-04-04T04:09:58;10.43;;;6.37;;
31764;SDS011;18338;53.240;8.798;2023-04-04T04:12:25;11.80;;;6.20;;
31764;SDS011;18338;53.240;8.798;2023-04-04T04:14:52;7.40;;;6.30;;
31764;SDS011;18338;53.240;8.798;2023-04-04T04:17:19;8.40;;;6.23;;
31764;SDS011;18338;53.240;8.798;2023-04-04T04:19:45;9.73;;;6.70;;
31764;SDS011;18338;53.240;8.798;2023-04-04T04:22:13;8.17;;;5.77;;
31764;SDS011;18338;53.240;8.798;2023-04-04T04:24:39;9.53;;;6.23;;
31764;SDS011;18338;53.240;8.798;2023-04-04T04:27:06;8.77;;;6.27;;
31764;SDS011;18338;53.240;8.798;2023-04-04T04:29:33;8.33;;;6.17;;
31764;SDS011;18338;53.240;8.798;2023-04-04T04:31:59;8.30;;;5.97;;
31764;SDS011;18338;53.240;8.798;2023-04-04T04:34:26;11.57;;;6.20;;
31764;SDS011;18338;53.240;8.798;2023-04-04T04:36:53;9.97;;;6.23;;
31764;SDS011;18338;53.240;8.798;2023-04-04T04:39:20;7.20;;;6.23;;
31764;SDS011;18338;53.240;8.798;2023-04-04T04:41:46;9.43;;;5.90;;
31764;SDS011;18338;53.240;8.798;2023-04-04T04:44:13;10.73;;;6.40;;
31764;SDS011;18338;53.240;8.798;2023-04-04T04:46:40;8.93;;;5.80;;
31764;SDS011;18338;53.240;8.798;2023-04-04T04:49:07;8.50;;;5.73;;
31764;SDS011;18338;53.240;8.798;2023-04-04T04:51:34;10.13;;;6.03;;
31764;SDS011;18338;53.240;8.798;2023-04-04T04:54:01;8.07;;;5.60;;
31764;SDS011;18338;53.240;8.798;2023-04-04T04:56:28;9.07;;;6.33;;
31764;SDS011;18338;53.240;8.798;2023-04-04T04:58:55;8.10;;;5.80;;
31764;SDS011;18338;53.240;8.798;2023-04-04T05:01:22;9.73;;;6.27;;
31764;SDS011;18338;53.240;8.798;2023-04-04T05:03:49;9.67;;;6.33;;
31764;SDS011;18338;53.240;8.798;2023-04-04T05:06:18;9.23;;;5.70;;
31764;SDS011;18338;53.240;8.798;2023-04-04T05:08:45;9.53;;;6.77;;
31764;SDS011;18338;53.240;8.798;2023-04-04T05:11:12;9.37;;;6.37;;
31764;SDS011;18338;53.240;8.798;2023-04-04T05:13:39;8.10;;;5.87;;
31764;SDS011;18338;53.240;8.798;2023-04-04T05:16:06;9.30;;;6.00;;
31764;SDS011;18338;53.240;8.798;2023-04-04T05:18:33;9.90;;;6.10;;
31764;SDS011;18338;53.240;8.798;2023-04-04T05:20:59;7.13;;;5.87;;
31764;SDS011;18338;53.240;8.798;2023-04-04T05:23:26;9.20;;;5.70;;
31764;SDS011;18338;53.240;8.798;2023-04-04T05:25:53;10.23;;;6.20;;
31764;SDS011;18338;53.240;8.798;2023-04-04T05:28:20;11.23;;;6.10;;
31764;SDS011;18338;53.240;8.798;2023-04-04T05:30:47;7.10;;;6.17;;
31764;SDS011;18338;53.240;8.798;2023-04-04T05:33:15;7.83;;;6.37;;
31764;SDS011;18338;53.240;8.798;2023-04-04T05:35:42;9.20;;;6.00;;
31764;SDS011;18338;53.240;8.798;2023-04-04T05:38:08;10.07;;;6.07;;
31764;SDS011;18338;53.240;8.798;2023-04-04T05:40:35;7.07;;;5.63;;
31764;SDS011;18338;53.240;8.798;2023-04-04T05:43:02;7.73;;;5.90;;
31764;SDS011;18338;53.240;8.798;2023-04-04T05:45:30;6.60;;;5.90;;
31764;SDS011;18338;53.240;8.798;2023-04-04T05:47:57;7.33;;;5.30;;
31764;SDS011;18338;53.240;8.798;2023-04-04T05:50:23;8.23;;;5.07;;
31764;SDS011;18338;53.240;8.798;2023-04-04T05:52:52;5.80;;;4.60;;
31764;SDS011;18338;53.240;8.798;2023-04-04T05:55:20;5.90;;;4.57;;
31764;SDS011;18338;53.240;8.798;2023-04-04T05:57:47;8.33;;;4.83;;
31764;SDS011;18338;53.240;8.798;2023-04-04T06:00:18;4.97;;;4.43;;
31764;SDS011;18338;53.240;8.798;2023-04-04T06:02:45;5.00;;;4.20;;
31764;SDS011;18338;53.240;8.798;2023-04-04T06:05:12;5.70;;;4.10;;
31764;SDS011;18338;53.240;8.798;2023-04-04T06:07:39;4.60;;;3.80;;
31764;SDS011;18338;53.240;8.798;2023-04-04T06:10:06;7.13;;;4.00;;
31764;SDS011;18338;53.240;8.798;2023-04-04T06:12:33;5.03;;;4.03;;
31764;SDS011;18338;53.240;8.798;2023-04-04T06:15:00;7.83;;;3.97;;
31764;SDS011;18338;53.240;8.798;2023-04-04T06:17:27;5.87;;;3.30;;
31764;SDS011;18338;53.240;8.798;2023-04-04T06:19:53;6.13;;;3.53;;
31764;SDS011;18338;53.240;8.798;2023-04-04T06:22:20;7.23;;;3.77;;
31764;SDS011;18338;53.240;8.798;2023-04-04T06:24:47;10.73;;;3.00;;
31764;SDS011;18338;53.240;8.798;2023-04-04T06:27:14;5.00;;;3.27;;
31764;SDS011;18338;53.240;8.798;2023-04-04T06:29:41;4.20;;;2.50;;
31764;SDS011;18338;53.240;8.798;2023-04-04T06:32:08;6.97;;;2.87;;
31764;SDS011;18338;53.240;8.798;2023-04-04T06:34:36;4.87;;;2.63;;
31764;SDS011;18338;53.240;8.798;2023-04-04T06:37:03;4.97;;;2.50;;
31764;SDS011;18338;53.240;8.798;2023-04-04T06:39:30;3.57;;;2.40;;
31764;SDS011;18338;53.240;8.798;2023-04-04T06:41:56;3.90;;;2.20;;
31764;SDS011;18338;53.240;8.798;2023-04-04T06:44:23;3.63;;;2.10;;
31764;SDS011;18338;53.240;8.798;2023-04-04T06:46:50;3.87;;;2.03;;
31764;SDS011;18338;53.240;8.798;2023-04-04T06:49:17;4.00;;;2.50;;
31764;SDS011;18338;53.240;8.798;2023-04-04T06:51:44;4.47;;;2.40;;
31764;SDS011;18338;53.240;8.798;2023-04-04T06:54:11;2.80;;;2.30;;
31764;SDS011;18338;53.240;8.798;2023-04-04T06:56:38;2.80;;;2.37;;
31764;SDS011;18338;53.240;8.798;2023-04-04T06:59:05;3.67;;;2.60;;
31764;SDS011;18338;53.240;8.798;2023-04-04T07:01:32;4.87;;;2.40;;
31764;SDS011;18338;53.240;8.798;2023-04-04T07:03:59;4.80;;;2.60;;
31764;SDS011;18338;53.240;8.798;2023-04-04T07:06:26;5.67;;;2.30;;
31764;SDS011;18338;53.240;8.798;2023-04-04T07:08:54;3.60;;;2.40;;
31764;SDS011;18338;53.240;8.798;2023-04-04T07:11:22;6.30;;;2.53;;
31764;SDS011;18338;53.240;8.798;2023-04-04T07:13:52;3.80;;;2.50;;
31764;SDS011;18338;53.240;8.798;2023-04-04T07:16:19;4.10;;;2.40;;
31764;SDS011;18338;53.240;8.798;2023-04-04T07:18:46;4.07;;;2.20;;
31764;SDS011;18338;53.240;8.798;2023-04-04T07:21:13;4.03;;;2.20;;
31764;SDS011;18338;53.240;8.798;2023-04-04T07:23:39;5.20;;;2.37;;
31764;SDS011;18338;53.240;8.798;2023-04-04T07:26:06;3.63;;;2.13;;
31764;SDS011;18338;53.240;8.798;2023-04-04T07:28:33;5.20;;;2.50;;
31764;SDS011;18338;53.240;8.798;2023-04-04T07:30:59;4.33;;;2.73;;
31764;SDS011;18338;53.240;8.798;2023-04-04T07:33:29;5.17;;;2.50;;
31764;SDS011;18338;53.240;8.798;2023-04-04T07:35:56;2.83;;;2.27;;
31764;SDS011;18338;53.240;8.798;2023-04-04T07:38:23;4.53;;;2.00;;
31764;SDS011;18338;53.240;8.798;2023-04-04T07:40:50;2.77;;;1.60;;
31764;SDS011;18338;53.240;8.798;2023-04-04T07:43:16;4.40;;;1.73;;
31764;SDS011;18338;53.240;8.798;2023-04-04T07:45:43;5.77;;;2.20;;
31764;SDS011;18338;53.240;8.798;2023-04-04T07:48:10;2.40;;;1.80;;
31764;SDS011;18338;53.240;8.798;2023-04-04T07:50:37;2.47;;;1.40;;
31764;SDS011;18338;53.240;8.798;2023-04-04T07:53:04;2.30;;;1.40;;
31764;SDS011;18338;53.240;8.798;2023-04-04T07:55:31;3.83;;;1.83;;
31764;SDS011;18338;53.240;8.798;2023-04-04T07:57:58;2.73;;;1.70;;
31764;SDS011;18338;53.240;8.798;2023-04-04T08:00:25;5.03;;;1.70;;
31764;SDS011;18338;53.240;8.798;2023-04-04T08:02:52;2.53;;;1.60;;
31764;SDS011;18338;53.240;8.798;2023-04-04T08:05:20;2.70;;;1.70;;
31764;SDS011;18338;53.240;8.798;2023-04-04T08:07:46;4.83;;;1.60;;
31764;SDS011;18338;53.240;8.798;2023-04-04T08:10:13;4.20;;;2.10;;
31764;SDS011;18338;53.240;8.798;2023-04-04T08:12:42;4.17;;;1.70;;
31764;SDS011;18338;53.240;8.798;2023-04-04T08:15:13;3.33;;;1.80;;
31764;SDS011;18338;53.240;8.798;2023-04-04T08:17:39;2.83;;;1.60;;
31764;SDS011;18338;53.240;8.798;2023-04-04T08:20:08;4.00;;;2.10;;
31764;SDS011;18338;53.240;8.798;2023-04-04T08:22:36;4.57;;;2.10;;
31764;SDS011;18338;53.240;8.798;2023-04-04T08:25:04;2.97;;;1.80;;
31764;SDS011;18338;53.240;8.798;2023-04-04T08:27:31;3.23;;;1.50;;
31764;SDS011;18338;53.240;8.798;2023-04-04T08:29:57;3.60;;;1.60;;
31764;SDS011;18338;53.240;8.798;2023-04-04T08:32:24;3.73;;;1.70;;
31764;SDS011;18338;53.240;8.798;2023-04-04T08:34:51;2.97;;;1.40;;
31764;SDS011;18338;53.240;8.798;2023-04-04T08:37:18;3.00;;;1.60;;
31764;SDS011;18338;53.240;8.798;2023-04-04T08:39:45;1.70;;;1.15;;
31764;SDS011;18338;53.240;8.798;2023-04-04T08:42:11;2.53;;;1.27;;
31764;SDS011;18338;53.240;8.798;2023-04-04T08:44:41;4.15;;;1.33;;
31764;SDS011;18338;53.240;8.798;2023-04-04T08:47:11;3.03;;;1.27;;
31764;SDS011;18338;53.240;8.798;2023-04-04T08:49:39;3.10;;;1.23;;
31764;SDS011;18338;53.240;8.798;2023-04-04T08:52:11;2.33;;;1.17;;
31764;SDS011;18338;53.240;8.798;2023-04-04T08:54:44;3.22;;;1.42;;
31764;SDS011;18338;53.240;8.798;2023-04-04T08:57:12;3.83;;;1.20;;
31764;SDS011;18338;53.240;8.798;2023-04-04T08:59:39;2.45;;;1.08;;
31764;SDS011;18338;53.240;8.798;2023-04-04T09:04:36;3.30;;;1.58;;
31764;SDS011;18338;53.240;8.798;2023-04-04T09:07:05;3.50;;;1.33;;
31764;SDS011;18338;53.240;8.798;2023-04-04T09:09:33;3.22;;;1.42;;
31764;SDS011;18338;53.240;8.798;2023-04-04T09:12:03;3.65;;;1.27;;
31764;SDS011;18338;53.240;8.798;2023-04-04T09:14:30;2.40;;;1.10;;
31764;SDS011;18338;53.240;8.798;2023-04-04T09:16:58;3.90;;;1.48;;
31764;SDS011;18338;53.240;8.798;2023-04-04T09:19:25;3.22;;;1.52;;
31764;SDS011;18338;53.240;8.798;2023-04-04T09:21:52;4.82;;;1.63;;
31764;SDS011;18338;53.240;8.798;2023-04-04T09:24:19;2.13;;;1.20;;
31764;SDS011;18338;53.240;8.798;2023-04-04T09:26:55;3.65;;;1.35;;
31764;SDS011;18338;53.240;8.798;2023-04-04T09:29:23;1.70;;;1.10;;
31764;SDS011;18338;53.240;8.798;2023-04-04T09:31:50;2.40;;;1.30;;
31764;SDS011;18338;53.240;8.798;2023-04-04T09:34:17;3.65;;;1.13;;
31764;SDS011;18338;53.240;8.798;2023-04-04T09:36:45;2.17;;;1.10;;
31764;SDS011;18338;53.240;8.798;2023-04-04T09:39:12;2.47;;;1.20;;
31764;SDS011;18338;53.240;8.798;2023-04-04T09:41:43;2.05;;;1.45;;
31764;SDS011;18338;53.240;8.798;2023-04-04T09:44:10;1.85;;;1.30;;
31764;SDS011;18338;53.240;8.798;2023-04-04T09:46:40;1.90;;;1.40;;
31764;SDS011;18338;53.240;8.798;2023-04-04T09:49:11;2.65;;;1.30;;
31764;SDS011;18338;53.240;8.798;2023-04-04T09:51:51;1.63;;;1.00;;
31764;SDS011;18338;53.240;8.798;2023-04-04T09:54:20;2.60;;;1.15;;
31764;SDS011;18338;53.240;8.798;2023-04-04T09:56:55;2.05;;;1.10;;
31764;SDS011;18338;53.240;8.798;2023-04-04T09:59:22;2.30;;;1.23;;
31764;SDS011;18338;53.240;8.798;2023-04-04T10:01:49;1.65;;;1.10;;
31764;SDS011;18338;53.240;8.798;2023-04-04T10:04:19;2.20;;;1.17;;
31764;SDS011;18338;53.240;8.798;2023-04-04T10:06:46;2.70;;;1.17;;
31764;SDS011;18338;53.240;8.798;2023-04-04T10:09:14;2.10;;;1.10;;
31764;SDS011;18338;53.240;8.798;2023-04-04T10:11:41;1.63;;;1.13;;
31764;SDS011;18338;53.240;8.798;2023-04-04T10:14:08;2.67;;;1.20;;
31764;SDS011;18338;53.240;8.798;2023-04-04T10:16:35;3.22;;;1.48;;
31764;SDS011;18338;53.240;8.798;2023-04-04T10:19:03;1.85;;;1.23;;
31764;SDS011;18338;53.240;8.798;2023-04-04T10:21:33;1.80;;;0.80;;
31764;SDS011;18338;53.240;8.798;2023-04-04T10:24:00;2.13;;;1.25;;
31764;SDS011;18338;53.240;8.798;2023-04-04T10:26:34;2.00;;;0.90;;
31764;SDS011;18338;53.240;8.798;2023-04-04T10:29:01;2.42;;;0.95;;
31764;SDS011;18338;53.240;8.798;2023-04-04T10:31:30;2.28;;;0.95;;
31764;SDS011;18338;53.240;8.798;2023-04-04T10:36:44;1.85;;;1.20;;
31764;SDS011;18338;53.240;8.798;2023-04-04T10:39:17;1.33;;;1.10;;
31764;SDS011;18338;53.240;8.798;2023-04-04T10:41:49;1.83;;;0.93;;
31764;SDS011;18338;53.240;8.798;2023-04-04T10:44:19;1.38;;;0.90;;
31764;SDS011;18338;53.240;8.798;2023-04-04T10:46:54;1.90;;;1.20;;
31764;SDS011;18338;53.240;8.798;2023-04-04T10:49:24;2.38;;;0.98;;
31764;SDS011;18338;53.240;8.798;2023-04-04T10:51:54;1.17;;;0.90;;
31764;SDS011;18338;53.240;8.798;2023-04-04T10:54:23;2.45;;;1.25;;
31764;SDS011;18338;53.240;8.798;2023-04-04T10:56:52;1.88;;;1.40;;
31764;SDS011;18338;53.240;8.798;2023-04-04T10:59:21;2.28;;;1.40;;
31764;SDS011;18338;53.240;8.798;2023-04-04T11:01:55;3.00;;;1.48;;
31764;SDS011;18338;53.240;8.798;2023-04-04T11:04:27;2.25;;;1.30;;
31764;SDS011;18338;53.240;8.798;2023-04-04T11:07:16;1.90;;;1.38;;
31764;SDS011;18338;53.240;8.798;2023-04-04T11:09:53;4.40;;;1.33;;
31764;SDS011;18338;53.240;8.798;2023-04-04T11:12:25;2.30;;;1.30;;
31764;SDS011;18338;53.240;8.798;2023-04-04T11:14:54;1.58;;;1.00;;
31764;SDS011;18338;53.240;8.798;2023-04-04T11:20:14;2.97;;;1.40;;
31764;SDS011;18338;53.240;8.798;2023-04-04T11:22:44;2.90;;;1.65;;
31764;SDS011;18338;53.240;8.798;2023-04-04T11:27:55;3.22;;;1.52;;
31764;SDS011;18338;53.240;8.798;2023-04-04T11:30:26;3.05;;;1.33;;
31764;SDS011;18338;53.240;8.798;2023-04-04T11:32:56;2.15;;;1.00;;
31764;SDS011;18338;53.240;8.798;2023-04-04T11:35:33;3.72;;;1.50;;
31764;SDS011;18338;53.240;8.798;2023-04-04T11:38:07;2.65;;;1.33;;
31764;SDS011;18338;53.240;8.798;2023-04-04T11:40:39;2.25;;;1.20;;
31764;SDS011;18338;53.240;8.798;2023-04-04T11:43:08;1.55;;;1.35;;
31764;SDS011;18338;53.240;8.798;2023-04-04T11:45:36;2.35;;;1.55;;
31764;SDS011;18338;53.240;8.798;2023-04-04T11:48:08;2.60;;;1.50;;
31764;SDS011;18338;53.240;8.798;2023-04-04T11:50:39;3.60;;;1.50;;
31764;SDS011;18338;53.240;8.798;2023-04-04T11:53:07;2.63;;;1.75;;
31764;SDS011;18338;53.240;8.798;2023-04-04T11:55:39;2.75;;;1.40;;
31764;SDS011;18338;53.240;8.798;2023-04-04T11:58:09;1.67;;;1.23;;
31764;SDS011;18338;53.240;8.798;2023-04-04T12:00:38;2.25;;;1.60;;
31764;SDS011;18338;53.240;8.798;2023-04-04T12:03:07;2.25;;;1.35;;
31764;SDS011;18338;53.240;8.798;2023-04-04T12:05:39;3.00;;;1.80;;
31764;SDS011;18338;53.240;8.798;2023-04-04T12:08:09;2.90;;;1.60;;
31764;SDS011;18338;53.240;8.798;2023-04-04T12:10:37;2.05;;;1.40;;
31764;SDS011;18338;53.240;8.798;2023-04-04T12:13:06;3.03;;;1.45;;
31764;SDS011;18338;53.240;8.798;2023-04-04T12:15:34;2.50;;;1.58;;
31764;SDS011;18338;53.240;8.798;2023-04-04T12:18:05;4.00;;;1.55;;
31764;SDS011;18338;53.240;8.798;2023-04-04T12:20:36;3.22;;;1.58;;
31764;SDS011;18338;53.240;8.798;2023-04-04T12:23:03;2.58;;;1.60;;
31764;SDS011;18338;53.240;8.798;2023-04-04T12:25:30;2.80;;;1.30;;
31764;SDS011;18338;53.240;8.798;2023-04-04T12:27:59;3.20;;;1.40;;
31764;SDS011;18338;53.240;8.798;2023-04-04T12:30:30;3.53;;;1.40;;
31764;SDS011;18338;53.240;8.798;2023-04-04T12:32:57;2.88;;;1.40;;
31764;SDS011;18338;53.240;8.798;2023-04-04T12:35:24;2.38;;;1.38;;
31764;SDS011;18338;53.240;8.798;2023-04-04T12:38:00;2.72;;;1.60;;
31764;SDS011;18338;53.240;8.798;2023-04-04T12:40:33;2.33;;;1.50;;
31764;SDS011;18338;53.240;8.798;2023-04-04T12:43:03;2.42;;;1.30;;
31764;SDS011;18338;53.240;8.798;2023-04-04T12:45:31;2.72;;;1.75;;
31764;SDS011;18338;53.240;8.798;2023-04-04T12:47:58;3.33;;;1.70;;
31764;SDS011;18338;53.240;8.798;2023-04-04T12:50:25;1.90;;;1.45;;
31764;SDS011;18338;53.240;8.798;2023-04-04T12:52:53;5.07;;;1.40;;
31764;SDS011;18338;53.240;8.798;2023-04-04T12:55:33;2.88;;;1.65;;
31764;SDS011;18338;53.240;8.798;2023-04-04T12:58:00;2.40;;;1.88;;
31764;SDS011;18338;53.240;8.798;2023-04-04T13:00:29;4.10;;;1.80;;
31764;SDS011;18338;53.240;8.798;2023-04-04T13:02:55;2.30;;;1.50;;
31764;SDS011;18338;53.240;8.798;2023-04-04T13:05:24;3.47;;;1.73;;
31764;SDS011;18338;53.240;8.798;2023-04-04T13:07:50;2.25;;;1.60;;
31764;SDS011;18338;53.240;8.798;2023-04-04T13:10:53;2.38;;;1.70;;
31764;SDS011;18338;53.240;8.798;2023-04-04T13:13:31;2.38;;;1.50;;
31764;SDS011;18338;53.240;8.798;2023-04-04T13:16:00;2.75;;;1.38;;
31764;SDS011;18338;53.240;8.798;2023-04-04T13:18:32;2.65;;;1.40;;
31764;SDS011;18338;53.240;8.798;2023-04-04T13:21:02;2.83;;;1.30;;
31764;SDS011;18338;53.240;8.798;2023-04-04T13:23:33;3.63;;;1.52;;
31764;SDS011;18338;53.240;8.798;2023-04-04T13:26:04;2.03;;;1.40;;
31764;SDS011;18338;53.240;8.798;2023-04-04T13:28:33;3.42;;;1.73;;
31764;SDS011;18338;53.240;8.798;2023-04-04T13:31:05;2.92;;;1.60;;
31764;SDS011;18338;53.240;8.798;2023-04-04T13:33:33;1.52;;;1.20;;
31764;SDS011;18338;53.240;8.798;2023-04-04T13:36:00;4.28;;;2.05;;
31764;SDS011;18338;53.240;8.798;2023-04-04T13:38:27;2.70;;;1.67;;
31764;SDS011;18338;53.240;8.798;2023-04-04T13:40:56;2.15;;;1.60;;
31764;SDS011;18338;53.240;8.798;2023-04-04T13:43:24;3.33;;;1.65;;
31764;SDS011;18338;53.240;8.798;2023-04-04T13:45:51;2.47;;;1.50;;
31764;SDS011;18338;53.240;8.798;2023-04-04T13:48:21;4.93;;;1.52;;
31764;SDS011;18338;53.240;8.798;2023-04-04T13:50:48;4.03;;;1.77;;
31764;SDS011;18338;53.240;8.798;2023-04-04T13:53:20;2.00;;;1.48;;
31764;SDS011;18338;53.240;8.798;2023-04-04T13:55:47;3.05;;;1.55;;
31764;SDS011;18338;53.240;8.798;2023-04-04T13:58:16;2.20;;;1.63;;
31764;SDS011;18338;53.240;8.798;2023-04-04T14:00:46;2.45;;;1.33;;
31764;SDS011;18338;53.240;8.798;2023-04-04T14:03:14;3.83;;;1.67;;
31764;SDS011;18338;53.240;8.798;2023-04-04T14:05:41;2.42;;;1.60;;
31764;SDS011;18338;53.240;8.798;2023-04-04T14:08:08;2.03;;;1.38;;
31764;SDS011;18338;53.240;8.798;2023-04-04T14:10:35;2.08;;;1.45;;
31764;SDS011;18338;53.240;8.798;2023-04-04T14:13:02;3.08;;;1.40;;
31764;SDS011;18338;53.240;8.798;2023-04-04T14:15:29;2.70;;;1.60;;
31764;SDS011;18338;53.240;8.798;2023-04-04T14:17:56;1.70;;;1.23;;
31764;SDS011;18338;53.240;8.798;2023-04-04T14:20:22;2.80;;;1.80;;
31764;SDS011;18338;53.240;8.798;2023-04-04T14:22:49;1.85;;;1.45;;
31764;SDS011;18338;53.240;8.798;2023-04-04T14:25:16;2.55;;;1.45;;
31764;SDS011;18338;53.240;8.798;2023-04-04T14:27:43;2.53;;;1.50;;
31764;SDS011;18338;53.240;8.798;2023-04-04T14:30:09;4.38;;;1.80;;
31764;SDS011;18338;53.240;8.798;2023-04-04T14:32:37;2.53;;;1.60;;
31764;SDS011;18338;53.240;8.798;2023-04-04T14:35:04;2.15;;;1.40;;
31764;SDS011;18338;53.240;8.798;2023-04-04T14:37:31;3.10;;;1.80;;
31764;SDS011;18338;53.240;8.798;2023-04-04T14:39:58;3.28;;;1.70;;
31764;SDS011;18338;53.240;8.798;2023-04-04T14:42:24;2.30;;;1.70;;
31764;SDS011;18338;53.240;8.798;2023-04-04T14:44:51;2.92;;;1.40;;
31764;SDS011;18338;53.240;8.798;2023-04-04T14:47:18;2.60;;;1.42;;
31764;SDS011;18338;53.240;8.798;2023-04-04T14:49:44;2.13;;;1.38;;
31764;SDS011;18338;53.240;8.798;2023-04-04T14:52:11;1.70;;;1.33;;
31764;SDS011;18338;53.240;8.798;2023-04-04T14:54:38;1.80;;;1.35;;
31764;SDS011;18338;53.240;8.798;2023-04-04T14:57:04;2.92;;;1.60;;
31764;SDS011;18338;53.240;8.798;2023-04-04T14:59:31;2.78;;;1.40;;
31764;SDS011;18338;53.240;8.798;2023-04-04T15:01:58;3.33;;;1.42;;
31764;SDS011;18338;53.240;8.798;2023-04-04T15:04:25;6.53;;;1.70;;